createdAt,value
2023-01-08T08:05:49.311Z,2.85
2023-01-08T08:08:18.517Z,2.82
2023-01-08T08:10:46.846Z,2.83
2023-01-08T08:13:14.977Z,2.81
2023-01-08T08:15:43.191Z,2.74
2023-01-08T08:18:11.604Z,2.70
2023-01-08T08:20:40.017Z,2.64
2023-01-08T08:23:15.365Z,2.58
2023-01-08T08:25:43.492Z,2.55
2023-01-08T08:28:13.214Z,2.54
2023-01-08T08:30:42.631Z,2.52
2023-01-08T08:33:11.206Z,2.49
2023-01-08T08:35:41.210Z,2.48
2023-01-08T08:38:09.694Z,2.47
2023-01-08T08:40:38.242Z,2.48
2023-01-08T08:43:07.501Z,2.50
2023-01-08T08:45:36.774Z,2.53
2023-01-08T08:48:09.452Z,2.56
2023-01-08T08:50:38.447Z,2.55
2023-01-08T08:53:07.064Z,2.57
2023-01-08T08:55:35.402Z,2.61
2023-01-08T08:58:11.076Z,2.64
2023-01-08T09:00:41.321Z,2.73
2023-01-08T09:03:14.897Z,2.83
2023-01-08T09:05:43.363Z,2.87
2023-01-08T09:08:12.744Z,2.95
2023-01-08T09:10:42.638Z,2.98
2023-01-08T09:13:11.565Z,2.99
2023-01-08T09:15:40.371Z,3.01
2023-01-08T09:18:08.536Z,3.07
2023-01-08T09:20:37.615Z,3.05
2023-01-08T09:23:07.212Z,3.01
2023-01-08T09:25:37.054Z,2.98
2023-01-08T09:28:12.416Z,2.97
2023-01-08T09:30:40.969Z,2.93
2023-01-08T09:33:09.690Z,2.86
2023-01-08T09:35:37.933Z,2.89
2023-01-08T09:38:06.186Z,2.99
2023-01-08T09:40:42.890Z,3.08
2023-01-08T09:43:19.983Z,3.17
2023-01-08T09:46:08.675Z,3.24
2023-01-08T09:48:39.524Z,3.20
2023-01-08T09:51:19.217Z,3.16
2023-01-08T09:53:55.977Z,3.19
2023-01-08T09:56:24.403Z,3.28
2023-01-08T09:58:58.974Z,3.37
2023-01-08T10:01:35.094Z,3.34
2023-01-08T10:04:25.779Z,3.24
2023-01-08T10:07:10.476Z,3.17
2023-01-08T10:09:40.375Z,3.16
2023-01-08T10:12:12.807Z,3.15
2023-01-08T10:14:50.080Z,3.13
2023-01-08T10:17:35.012Z,3.13
2023-01-08T10:20:10.488Z,3.10
2023-01-08T10:22:38.621Z,2.99
2023-01-08T10:25:10.336Z,2.86
2023-01-08T10:27:48.249Z,2.81
2023-01-08T10:30:31.544Z,2.81
2023-01-08T10:33:06.206Z,2.79
2023-01-08T10:35:40.358Z,2.80
2023-01-08T10:38:34.236Z,2.85
2023-01-08T10:41:05.844Z,2.82
2023-01-08T10:44:00.475Z,2.76
2023-01-08T10:46:36.676Z,2.73
2023-01-08T10:49:08.071Z,2.74
2023-01-08T10:51:36.157Z,2.82
2023-01-08T10:54:24.087Z,2.86
2023-01-08T10:56:52.262Z,2.85
2023-01-08T10:59:23.123Z,2.79
2023-01-08T11:01:56.351Z,2.82
2023-01-08T11:04:32.874Z,2.88
2023-01-08T11:07:04.516Z,2.92
2023-01-08T11:09:34.946Z,2.97
2023-01-08T11:12:03.157Z,3.10
2023-01-08T11:14:35.335Z,3.23
2023-01-08T11:17:10.608Z,3.34
2023-01-08T11:19:40.334Z,3.37
2023-01-08T11:22:22.227Z,3.47
2023-01-08T11:24:52.756Z,3.58
2023-01-08T11:27:24.197Z,3.71
2023-01-08T11:30:07.234Z,3.83
2023-01-08T11:32:45.837Z,3.82
2023-01-08T11:35:26.434Z,3.63
2023-01-08T11:38:02.091Z,3.53
2023-01-08T11:40:57.664Z,3.50
2023-01-08T11:43:28.927Z,3.47
2023-01-08T11:46:06.149Z,3.51
2023-01-08T11:48:56.499Z,3.50
2023-01-08T11:52:02.756Z,3.40
2023-01-08T11:54:42.926Z,3.33
2023-01-08T11:57:56.678Z,3.39
2023-01-08T12:00:37.024Z,3.51
2023-01-08T12:03:34.522Z,3.59
2023-01-08T12:06:07.153Z,3.61
2023-01-08T12:08:38.177Z,3.59
2023-01-08T12:11:25.139Z,3.53
2023-01-08T12:14:06.286Z,3.47
2023-01-08T12:16:57.086Z,3.43
2023-01-08T12:19:45.238Z,3.44
2023-01-08T12:22:22.114Z,3.43
2023-01-08T12:25:23.388Z,3.47
2023-01-08T12:27:57.690Z,3.48
2023-01-08T12:30:31.680Z,3.48
2023-01-08T12:33:16.332Z,3.48
2023-01-08T12:35:50.391Z,3.43
2023-01-08T12:38:40.647Z,3.40
2023-01-08T12:41:15.414Z,3.36
2023-01-08T12:43:58.176Z,3.34
2023-01-08T12:46:30.654Z,3.37
2023-01-08T12:49:00.771Z,3.37
2023-01-08T12:51:49.153Z,3.29
2023-01-08T12:54:39.093Z,3.17
2023-01-08T12:57:10.556Z,3.06
2023-01-08T12:59:51.420Z,3.03
2023-01-08T13:02:45.164Z,3.02
2023-01-08T13:05:19.313Z,3.06
2023-01-08T13:07:53.436Z,3.12
2023-01-08T13:10:36.033Z,3.19
2023-01-08T13:13:06.235Z,3.22
2023-01-08T13:15:36.614Z,3.30
2023-01-08T13:18:23.183Z,3.35
2023-01-08T13:20:59.341Z,3.41
2023-01-08T13:23:35.195Z,3.37
2023-01-08T13:26:05.902Z,3.37
2023-01-08T13:28:37.662Z,3.43
2023-01-08T13:31:27.366Z,3.43
2023-01-08T13:33:55.934Z,3.44
2023-01-08T13:36:25.267Z,3.42
2023-01-08T13:39:24.246Z,3.40
2023-01-08T13:42:14.015Z,3.35
2023-01-08T13:44:49.516Z,3.31
2023-01-08T13:47:24.391Z,3.28
2023-01-08T13:49:55.492Z,3.25
2023-01-08T13:52:33.029Z,3.20
2023-01-08T13:55:05.717Z,3.17
2023-01-08T13:57:39.908Z,3.18
2023-01-08T14:00:19.580Z,3.15
2023-01-08T14:02:50.792Z,3.17
2023-01-08T14:05:45.706Z,3.19
2023-01-08T14:08:25.955Z,3.24
2023-01-08T14:10:54.448Z,3.26
2023-01-08T14:13:27.931Z,3.26
2023-01-08T14:16:01.690Z,3.26
2023-01-08T14:18:30.122Z,3.31
2023-01-08T14:20:59.029Z,3.26
2023-01-08T14:23:32.286Z,3.19
2023-01-08T14:26:05.496Z,3.12
2023-01-08T14:28:33.560Z,3.11
2023-01-08T14:31:01.942Z,3.12
2023-01-08T14:33:37.800Z,3.16
2023-01-08T14:36:08.302Z,3.13
2023-01-08T14:38:36.492Z,3.07
2023-01-08T14:41:12.095Z,3.04
2023-01-08T14:43:44.099Z,3.07
2023-01-08T14:46:26.828Z,3.14
2023-01-08T14:48:57.375Z,3.21
2023-01-08T14:51:29.727Z,3.17
2023-01-08T14:54:03.821Z,3.13
2023-01-08T14:56:35.962Z,3.14
2023-01-08T14:59:10.651Z,3.19
2023-01-08T15:01:39.496Z,3.28
2023-01-08T15:04:18.540Z,3.34
2023-01-08T15:06:46.914Z,3.37
2023-01-08T15:09:28.517Z,3.37
2023-01-08T15:12:08.011Z,3.32
2023-01-08T15:14:37.437Z,3.27
2023-01-08T15:17:11.729Z,3.26
2023-01-08T15:19:49.586Z,3.16
2023-01-08T15:22:32.073Z,3.04
2023-01-08T15:25:04.158Z,2.95
2023-01-08T15:27:37.135Z,2.85
2023-01-08T15:30:09.421Z,2.74
2023-01-08T15:32:39.103Z,2.61
2023-01-08T15:35:15.594Z,2.46
2023-01-08T15:37:43.636Z,2.30
2023-01-08T15:40:13.022Z,2.21
2023-01-08T15:43:00.059Z,2.18
2023-01-08T15:45:33.599Z,2.17
2023-01-08T15:48:02.463Z,2.18
2023-01-08T15:50:38.844Z,2.19
2023-01-08T15:53:25.133Z,2.18
2023-01-08T15:55:53.349Z,2.20
2023-01-08T15:58:21.545Z,2.27
2023-01-08T16:00:49.640Z,2.28
2023-01-08T16:03:18.401Z,2.23
2023-01-08T16:05:46.709Z,2.18
2023-01-08T16:08:14.755Z,2.17
2023-01-08T16:10:43.131Z,2.19
2023-01-08T16:13:12.314Z,2.19
2023-01-08T16:15:40.808Z,2.17
2023-01-08T16:18:09.285Z,2.21
2023-01-08T16:20:38.659Z,2.24
2023-01-08T16:23:07.279Z,2.23
2023-01-08T16:25:35.762Z,2.22
2023-01-08T16:28:04.067Z,2.22
2023-01-08T16:30:33.221Z,2.25
2023-01-08T16:33:01.271Z,2.29
2023-01-08T16:35:29.573Z,2.29
2023-01-08T16:37:57.612Z,2.36
2023-01-08T16:40:26.736Z,2.39
2023-01-08T16:43:01.964Z,2.35
2023-01-08T16:45:30.098Z,2.32
2023-01-08T16:47:58.325Z,2.24
2023-01-08T16:50:26.603Z,2.14
2023-01-08T16:52:54.645Z,2.05
2023-01-08T16:55:24.178Z,1.98
2023-01-08T16:57:54.594Z,1.94
2023-01-08T17:00:23.915Z,1.97
2023-01-08T17:02:52.185Z,1.91
2023-01-08T17:05:20.556Z,1.76
2023-01-08T17:07:52.312Z,1.72
2023-01-08T17:10:25.028Z,1.69
2023-01-08T17:12:53.268Z,1.66
2023-01-08T17:15:21.332Z,1.68
2023-01-08T17:17:49.810Z,1.70
2023-01-08T17:20:19.842Z,1.75
2023-01-08T17:22:48.618Z,1.82
2023-01-08T17:25:17.100Z,1.82
2023-01-08T17:27:45.569Z,1.81
2023-01-08T17:30:14.727Z,1.82
2023-01-08T17:32:42.938Z,1.76
2023-01-08T17:35:12.557Z,1.65
2023-01-08T17:37:41.034Z,1.69
2023-01-08T17:40:09.977Z,1.75
2023-01-08T17:42:39.521Z,1.76
2023-01-08T17:45:08.315Z,1.70
2023-01-08T17:47:37.614Z,1.63
2023-01-08T17:50:06.627Z,1.58
2023-01-08T17:52:38.293Z,1.59
2023-01-08T17:55:07.360Z,1.68
2023-01-08T17:57:35.543Z,1.74
2023-01-08T18:00:05.636Z,1.78
2023-01-08T18:02:34.494Z,1.84
2023-01-08T18:05:03.123Z,1.82
2023-01-08T18:07:34.494Z,1.86
2023-01-08T18:10:04.290Z,1.84
2023-01-08T18:12:32.769Z,1.70
2023-01-08T18:15:01.467Z,1.60
2023-01-08T18:17:31.356Z,1.57
2023-01-08T18:20:00.507Z,1.58
2023-01-08T18:22:28.999Z,1.56
2023-01-08T18:24:57.208Z,1.57
2023-01-08T18:27:25.695Z,1.60
2023-01-08T18:29:54.801Z,1.69
2023-01-08T18:32:26.018Z,1.68
2023-01-08T18:34:54.307Z,1.64
2023-01-08T18:37:23.639Z,1.64
2023-01-08T18:39:51.722Z,1.74
2023-01-08T18:42:25.642Z,1.79
2023-01-08T18:44:56.144Z,1.82
2023-01-08T18:47:27.520Z,1.85
2023-01-08T18:49:59.129Z,1.84
2023-01-08T18:52:27.288Z,1.88
2023-01-08T18:54:55.700Z,1.93
2023-01-08T18:57:24.212Z,1.95
2023-01-08T18:59:52.513Z,2.02
2023-01-08T19:02:24.160Z,2.07
2023-01-08T19:04:52.652Z,2.08
2023-01-08T19:07:20.925Z,1.94
2023-01-08T19:09:49.309Z,1.89
2023-01-08T19:12:18.505Z,1.85
2023-01-08T19:14:48.112Z,1.77
2023-01-08T19:17:16.891Z,1.76
2023-01-08T19:19:45.064Z,1.74
2023-01-08T19:22:13.329Z,1.72
2023-01-08T19:24:41.836Z,1.75
2023-01-08T19:27:10.102Z,1.73
2023-01-08T19:29:38.179Z,1.74
2023-01-08T19:32:07.659Z,1.73
2023-01-08T19:34:35.858Z,1.68
2023-01-08T19:37:04.843Z,1.69
2023-01-08T19:39:33.220Z,1.72
2023-01-08T19:42:20.547Z,1.76
2023-01-08T19:44:48.822Z,1.78
2023-01-08T19:47:18.324Z,1.81
2023-01-08T19:49:47.881Z,1.84
2023-01-08T19:52:17.550Z,1.86
2023-01-08T19:54:45.906Z,1.92
2023-01-08T19:57:14.088Z,1.96
2023-01-08T19:59:42.461Z,1.98
2023-01-08T20:02:11.480Z,2.01
2023-01-08T20:04:43.827Z,2.06
2023-01-08T20:07:13.695Z,2.07
2023-01-08T20:09:43.282Z,2.09
2023-01-08T20:12:11.792Z,2.05
2023-01-08T20:14:40.108Z,2.07
2023-01-08T20:17:08.329Z,2.10
2023-01-08T20:19:37.283Z,2.09
2023-01-08T20:22:05.445Z,2.08
2023-01-08T20:24:33.815Z,2.06
2023-01-08T20:27:02.148Z,2.04
2023-01-08T20:29:30.467Z,1.99
2023-01-08T20:32:00.087Z,1.96
2023-01-08T20:34:28.453Z,1.97
2023-01-08T20:36:57.449Z,2.00
2023-01-08T20:39:25.515Z,2.00
2023-01-08T20:41:55.838Z,1.90
2023-01-08T20:44:33.249Z,1.84
2023-01-08T20:47:02.240Z,1.85
2023-01-08T20:49:31.027Z,1.81
2023-01-08T20:52:00.544Z,1.70
2023-01-08T20:54:30.426Z,1.58
2023-01-08T20:57:00.046Z,1.50
2023-01-08T20:59:28.953Z,1.44
2023-01-08T21:01:57.476Z,1.42
2023-01-08T21:04:26.066Z,1.42
2023-01-08T21:06:54.195Z,1.40
2023-01-08T21:09:22.398Z,1.40
2023-01-08T21:11:50.939Z,1.35
2023-01-08T21:14:19.406Z,1.31
2023-01-08T21:16:48.043Z,1.29
2023-01-08T21:19:16.481Z,1.23
2023-01-08T21:21:45.985Z,1.20
2023-01-08T21:24:14.136Z,1.21
2023-01-08T21:26:45.411Z,1.18
2023-01-08T21:29:17.024Z,1.11
2023-01-08T21:31:45.498Z,1.06
2023-01-08T21:34:15.134Z,1.05
2023-01-08T21:36:43.201Z,1.10
2023-01-08T21:39:12.206Z,1.11
2023-01-08T21:41:58.892Z,1.11
2023-01-08T21:44:45.481Z,1.11
2023-01-08T21:47:18.009Z,1.11
2023-01-08T21:49:46.444Z,1.15
2023-01-08T21:52:33.675Z,1.21
2023-01-08T21:55:02.980Z,1.26
2023-01-08T21:57:31.033Z,1.25
2023-01-08T21:59:59.300Z,1.24
2023-01-08T22:02:27.592Z,1.20
2023-01-08T22:04:56.652Z,1.17
2023-01-08T22:07:26.087Z,1.16
2023-01-08T22:09:54.958Z,1.11
2023-01-08T22:12:24.375Z,1.07
2023-01-08T22:14:56.336Z,1.07
2023-01-08T22:17:26.368Z,1.07
2023-01-08T22:19:54.537Z,1.09
2023-01-08T22:22:22.716Z,1.11
2023-01-08T22:24:52.447Z,1.15
2023-01-08T22:27:22.013Z,1.21
2023-01-08T22:29:50.345Z,1.26
2023-01-08T22:32:18.643Z,1.25
2023-01-08T22:34:46.942Z,1.19
2023-01-08T22:37:17.072Z,1.12
2023-01-08T22:39:46.058Z,1.11
2023-01-08T22:42:14.476Z,1.17
2023-01-08T22:44:43.119Z,1.20
2023-01-08T22:47:11.177Z,1.20
2023-01-08T22:49:39.255Z,1.24
2023-01-08T22:52:08.474Z,1.27
2023-01-08T22:54:38.811Z,1.26
2023-01-08T22:57:08.395Z,1.28
2023-01-08T22:59:36.785Z,1.32
2023-01-08T23:02:05.248Z,1.35
2023-01-08T23:04:33.318Z,1.38
2023-01-08T23:07:01.493Z,1.43
2023-01-08T23:09:29.969Z,1.43
2023-01-08T23:11:58.354Z,1.37
2023-01-08T23:14:26.620Z,1.33
2023-01-08T23:16:54.710Z,1.37
2023-01-08T23:19:23.016Z,1.35
2023-01-08T23:21:51.146Z,1.31
2023-01-08T23:24:19.317Z,1.27
2023-01-08T23:26:47.524Z,1.24
2023-01-08T23:29:15.562Z,1.22
2023-01-08T23:31:44.424Z,1.17
2023-01-08T23:34:12.676Z,1.11
2023-01-08T23:36:41.213Z,1.05
2023-01-08T23:39:10.613Z,0.95
2023-01-08T23:41:38.628Z,0.89
2023-01-08T23:44:11.237Z,0.83
2023-01-08T23:46:39.531Z,0.76
2023-01-08T23:49:08.213Z,0.73
2023-01-08T23:51:37.411Z,0.71
2023-01-08T23:54:05.475Z,0.68
2023-01-08T23:56:33.647Z,0.67
2023-01-08T23:59:02.481Z,0.69
